Impacts TAF Board INFO
FOR SITUATIONAL AWARENESS. NOT TO BE USED FOR FLIGHT PLANNING PURPOSES.
IDs:

KIAH - Houston/Bush Intl, TX, US

Issued at 1740 UTC 18 Dec 2017
Updated at 2015 UTC 18 Dec 2017
Potential Impact None Slight Moderate High
Time<<19/09Z 19/10Z 19/11Z 19/12Z 19/13Z 19/14Z 19/15Z 19/16Z 19/17Z 19/18Z 19/19Z 19/20Z 19/21Z>>
Type PRVL
  [TEMP]  
PRVL
  [TEMP]  
PRVL
  [TEMP]  
PRVL PRVL PRVL PRVL PRVL PRVL PRVL PRVL PRVL PRVL
VIS 3
  [1]  
3
  [1]  
3
  [1]  
3 3 3 6 6 6 6 >6 >6 >6
CIG 7
  [4]  
7
  [4]  
7
  [4]  
7 7 7 10 10 10 10 20 20 20
Cover OVC
  [OVC]  
OVC
  [OVC]  
OVC
  [OVC]  
OVC OVC OVC BKN BKN BKN BKN OVC OVC OVC
FltCat IFR
  [LIFR]  
IFR
  [LIFR]  
IFR
  [LIFR]  
IFR IFR IFR MVFR MVFR MVFR MVFR MVFR MVFR MVFR
WX -DZ BR VCSH
  [BR]  
-DZ BR VCSH
  [BR]  
-DZ BR VCSH
  [BR]  
-DZ BR VCSH -DZ BR VCSH -DZ BR VCSH -SHRA VCSH -SHRA VCSH -SHRA VCSH -SHRA VCSH VCSH VCSH VCSH
WDir 110
[110]
110
[110]
110
[110]
110 110 110 150 150 150 150 180 180 180
WSpd 3
  [3]  
3
  [3]  
3
  [3]  
3 3 3 7 7 7 7 10 10 10
WGst --
  [--]  
--
  [--]  
--
  [--]  
-- -- -- -- -- -- -- -- -- --

Raw TAF
KIAH 181740Z 1818/1924 10004KT P6SM VCSH BKN020 OVC030
  FM190000 10005KT 6SM -SHRA BR VCSH OVC010
  FM190500 11003KT 3SM -DZ BR VCSH OVC007
  TEMPO 1908/1912 1SM BR OVC004
  FM191500 15007KT 6SM -SHRA VCSH BKN010
  FM191900 18010KT P6SM VCSH BKN020 OVC035


METAR Board
Radar Display
Forecast Discussion

FOR SITUATIONAL AWARENESS. NOT TO BE USED FOR FLIGHT PLANNING PURPOSES.